Time;durP1;ratioP1;P1;durP2;ratioP2;P2;SDS_P1;SDS_P2;PMS_P1;PMS_P2;Temp;Humidity;BMP_temperature;BMP_pressure;BME280_temperature;BME280_humidity;BME280_pressure;Samples;Min_cycle;Max_cycle;Signal;HPM_P1;HPM_P2
2021/07/10 00:00:48;;;;;;;16.80;10.75;;;16.20;99.90;;;;;;4927471;29;20210;-96
2021/07/10 00:03:18;;;;;;;15.93;10.88;;;16.20;99.90;;;;;;4916084;29;20210;-96
2021/07/10 00:05:46;;;;;;;11.75;9.60;;;16.10;99.90;;;;;;4927060;29;20175;-96
2021/07/10 00:08:14;;;;;;;18.65;10.27;;;16.10;99.90;;;;;;4920120;29;20254;-96
2021/07/10 00:10:45;;;;;;;17.50;10.88;;;16.10;99.90;;;;;;4928423;29;20703;-96
2021/07/10 00:13:11;;;;;;;15.10;10.77;;;16.10;99.90;;;;;;4927295;29;20214;-96
2021/07/10 00:15:38;;;;;;;12.82;10.50;;;16.10;99.90;;;;;;4916544;29;20222;-96
2021/07/10 00:18:09;;;;;;;19.70;10.93;;;16.10;99.90;;;;;;4923463;29;20318;-96
2021/07/10 00:20:36;;;;;;;14.30;10.20;;;16.00;99.90;;;;;;4925949;29;20183;-96
2021/07/10 00:23:02;;;;;;;14.82;10.65;;;15.90;99.90;;;;;;4925599;29;20266;-96
2021/07/10 00:25:31;;;;;;;16.67;11.40;;;15.90;99.90;;;;;;4911959;29;20167;-96
2021/07/10 00:27:57;;;;;;;15.35;10.80;;;16.00;99.90;;;;;;4918275;29;20711;-96
2021/07/10 00:30:27;;;;;;;14.45;9.93;;;15.90;99.90;;;;;;4924158;29;20231;-96
2021/07/10 00:32:54;;;;;;;13.88;10.85;;;15.90;99.90;;;;;;4923365;29;20231;-96
2021/07/10 00:35:25;;;;;;;18.35;11.68;;;15.80;99.90;;;;;;4925706;29;20202;-96
2021/07/10 00:37:52;;;;;;;15.45;10.98;;;15.90;99.90;;;;;;4912331;29;20219;-96
2021/07/10 00:40:18;;;;;;;16.38;10.57;;;15.80;99.90;;;;;;4921404;29;20164;-96
2021/07/10 00:42:47;;;;;;;15.23;10.45;;;15.80;99.90;;;;;;4922004;29;20206;-96
2021/07/10 00:45:16;;;;;;;15.25;10.77;;;15.80;99.90;;;;;;4928037;29;20170;-96
2021/07/10 00:47:43;;;;;;;21.08;11.00;;;15.80;99.90;;;;;;4923991;29;20191;-96
2021/07/10 00:50:17;;;;;;;17.92;11.35;;;15.80;99.90;;;;;;4930707;29;20178;-96
2021/07/10 00:52:49;;;;;;;18.40;11.63;;;15.80;99.90;;;;;;4929323;29;20230;-96
2021/07/10 00:55:21;;;;;;;16.15;10.88;;;15.70;99.90;;;;;;4936649;29;20277;-96
2021/07/10 00:57:52;;;;;;;16.02;11.43;;;15.70;99.90;;;;;;4934479;29;20206;-96
2021/07/10 01:00:26;;;;;;;16.10;11.20;;;15.70;99.90;;;;;;4926494;29;20230;-96
2021/07/10 01:02:58;;;;;;;22.10;12.00;;;15.70;99.90;;;;;;4919745;29;20226;-96
2021/07/10 01:05:28;;;;;;;17.27;11.20;;;15.70;99.90;;;;;;4938120;29;20203;-97
2021/07/10 01:08:00;;;;;;;15.75;11.63;;;15.70;99.90;;;;;;4935392;29;20164;-96
2021/07/10 01:10:30;;;;;;;17.40;10.98;;;15.70;99.90;;;;;;4935635;29;20242;-96
2021/07/10 01:13:05;;;;;;;18.80;11.27;;;15.70;99.90;;;;;;4937285;29;20222;-96
2021/07/10 01:15:33;;;;;;;17.52;11.63;;;15.60;99.90;;;;;;4935922;29;20191;-96
2021/07/10 01:18:08;;;;;;;18.52;12.63;;;15.60;99.90;;;;;;4926683;23;20265;-96
2021/07/10 01:20:53;;;;;;;22.23;12.32;;;15.60;99.90;;;;;;4901876;24;20251;-96
2021/07/10 01:23:31;;;;;;;16.35;11.85;;;15.60;99.90;;;;;;4919658;29;20187;-96
2021/07/10 01:26:07;;;;;;;22.77;11.80;;;15.50;99.90;;;;;;4910534;29;20190;-96
2021/07/10 01:28:40;;;;;;;18.23;12.77;;;15.50;99.90;;;;;;4923957;29;20243;-96
2021/07/10 01:31:31;;;;;;;18.55;12.70;;;15.50;99.90;;;;;;4921648;29;20226;-95
2021/07/10 01:34:04;;;;;;;18.77;12.40;;;15.50;99.90;;;;;;4924335;29;20186;-96
2021/07/10 01:39:12;;;;;;;15.20;11.02;;;15.40;99.90;;;;;;4925637;23;20229;-95
2021/07/10 01:41:49;;;;;;;19.17;12.27;;;15.40;99.90;;;;;;4918015;23;20266;-95
2021/07/10 01:44:29;;;;;;;17.35;12.60;;;15.40;99.90;;;;;;4877862;29;20323;-96
2021/07/10 02:20:38;;;;;;;16.50;11.32;;;15.10;99.90;;;;;;4931119;23;20241;-96
2021/07/10 02:23:31;;;;;;;14.60;11.18;;;15.10;99.90;;;;;;4899916;29;20309;-95
2021/07/10 02:26:09;;;;;;;19.05;11.85;;;15.00;99.90;;;;;;4902246;29;20324;-95
2021/07/10 02:29:15;;;;;;;19.20;12.73;;;15.00;99.90;;;;;;4864049;29;20234;-94
2021/07/10 03:24:05;;;;;;;18.77;13.75;;;14.80;99.90;;;;;;5327177;23;20209;-97
2021/07/10 03:26:37;;;;;;;18.90;12.82;;;14.80;99.90;;;;;;4895624;29;20572;-95
2021/07/10 03:29:29;;;;;;;20.30;13.55;;;14.90;99.90;;;;;;4904895;29;20238;-95
2021/07/10 03:31:55;;;;;;;19.48;13.43;;;14.80;99.90;;;;;;4898612;29;20221;-96
2021/07/10 03:34:23;;;;;;;25.55;13.77;;;14.80;99.90;;;;;;4905026;29;20222;-95
2021/07/10 03:36:49;;;;;;;20.98;12.77;;;14.80;99.90;;;;;;4914026;29;20277;-95
2021/07/10 03:39:15;;;;;;;24.52;14.15;;;14.80;99.90;;;;;;4888986;29;20242;-96
2021/07/10 03:41:42;;;;;;;18.63;12.65;;;14.80;99.90;;;;;;4913524;29;20194;-96
2021/07/10 03:44:08;;;;;;;18.77;12.48;;;14.80;99.90;;;;;;4888292;29;20253;-95
2021/07/10 03:46:38;;;;;;;23.17;13.77;;;14.80;99.90;;;;;;4913228;29;20246;-95
2021/07/10 03:49:04;;;;;;;17.52;13.45;;;14.70;99.90;;;;;;4888495;29;20317;-95
2021/07/10 03:51:31;;;;;;;19.63;13.80;;;14.70;99.90;;;;;;4912972;29;20301;-96
2021/07/10 03:53:57;;;;;;;17.90;13.48;;;14.70;99.90;;;;;;4903520;29;20238;-95
2021/07/10 03:56:38;;;;;;;21.23;14.40;;;14.70;99.90;;;;;;4915159;29;20194;-95
2021/07/10 03:59:05;;;;;;;23.70;14.10;;;14.70;99.90;;;;;;4904979;29;20324;-95
2021/07/10 04:01:44;;;;;;;19.35;13.82;;;14.70;99.90;;;;;;4913904;29;20226;-94
2021/07/10 04:04:12;;;;;;;19.77;13.30;;;14.70;99.90;;;;;;4888900;29;20241;-95
2021/07/10 04:06:41;;;;;;;19.02;14.25;;;14.70;99.90;;;;;;4914171;29;20642;-94
2021/07/10 04:09:10;;;;;;;17.88;13.35;;;14.70;99.90;;;;;;4904644;29;20238;-95
2021/07/10 04:11:50;;;;;;;17.00;13.40;;;14.70;99.90;;;;;;4913602;29;20246;-95
2021/07/10 04:14:26;;;;;;;19.55;13.52;;;14.70;99.90;;;;;;4888955;29;20329;-95
2021/07/10 04:17:00;;;;;;;22.27;13.65;;;14.80;99.90;;;;;;4915413;29;20605;-95
2021/07/10 04:19:36;;;;;;;20.02;13.25;;;14.80;99.90;;;;;;4878402;29;20270;-95
2021/07/10 04:22:46;;;;;;;14.98;13.15;;;14.70;99.90;;;;;;4918903;29;20213;-95
2021/07/10 04:29:37;;;;;;;21.67;11.85;;;14.90;99.90;;;;;;4915864;29;20245;-95
2021/07/10 04:45:21;;;;;;;17.92;12.85;;;15.10;99.90;;;;;;1760525;23;20503;-94
2021/07/10 04:48:26;;;;;;;16.23;12.85;;;15.20;99.90;;;;;;4825460;29;20249;-96
2021/07/10 04:50:54;;;;;;;19.85;12.52;;;15.30;99.90;;;;;;4798942;29;20308;-96
2021/07/10 04:53:20;;;;;;;14.20;11.85;;;15.30;99.90;;;;;;4808199;29;20752;-95
2021/07/10 04:55:47;;;;;;;15.27;12.20;;;15.40;99.90;;;;;;4798363;29;20250;-96
2021/07/10 04:58:15;;;;;;;16.70;12.07;;;15.30;99.90;;;;;;4808535;29;20243;-96
2021/07/10 05:00:41;;;;;;;17.13;12.10;;;15.40;99.90;;;;;;4799063;29;20233;-96
2021/07/10 05:03:16;;;;;;;16.30;11.35;;;15.40;99.90;;;;;;4808504;29;20235;-96
2021/07/10 05:05:53;;;;;;;14.93;11.43;;;15.40;99.90;;;;;;4784765;29;20655;-96
2021/07/10 05:08:25;;;;;;;13.65;10.88;;;15.40;99.90;;;;;;4808577;29;20742;-96
2021/07/10 05:10:52;;;;;;;14.90;11.18;;;15.40;99.90;;;;;;4799957;29;20241;-95
2021/07/10 05:27:04;;;;;;;15.75;11.23;;;15.60;99.90;;;;;;5304604;23;20256;-96
2021/07/10 05:29:33;;;;;;;12.88;10.70;;;15.70;99.90;;;;;;4834705;29;20192;-95
2021/07/10 05:32:15;;;;;;;16.08;10.95;;;15.70;99.90;;;;;;4827497;29;20301;-95
2021/07/10 05:38:01;;;;;;;14.90;10.85;;;15.90;99.90;;;;;;4843106;29;20192;-94
2021/07/10 05:40:37;;;;;;;14.75;10.48;;;16.00;99.90;;;;;;4804465;29;20292;-95
2021/07/10 05:43:03;;;;;;;13.00;9.75;;;16.10;99.90;;;;;;4840411;29;20225;-96
2021/07/10 05:45:30;;;;;;;18.55;9.05;;;16.10;99.90;;;;;;4841934;29;20218;-96
2021/07/10 05:47:57;;;;;;;14.30;9.77;;;16.10;99.90;;;;;;4840193;29;20181;-96
2021/07/10 05:50:23;;;;;;;15.43;9.45;;;16.10;99.90;;;;;;4839008;29;20350;-94
2021/07/10 05:52:50;;;;;;;11.90;8.65;;;16.10;99.90;;;;;;4838861;29;20296;-94
2021/07/10 05:55:16;;;;;;;11.63;8.35;;;16.10;99.90;;;;;;4829914;29;20257;-95
2021/07/10 05:57:42;;;;;;;12.50;8.60;;;16.10;99.90;;;;;;4837299;29;20217;-95
2021/07/10 06:00:13;;;;;;;16.80;9.30;;;16.10;99.90;;;;;;4829651;29;20312;-93
2021/07/10 06:02:40;;;;;;;8.98;7.97;;;16.20;99.90;;;;;;4839496;29;20209;-94
2021/07/10 06:05:08;;;;;;;14.50;8.50;;;16.20;99.90;;;;;;4829822;29;20189;-94
2021/07/10 06:07:37;;;;;;;10.05;7.80;;;16.20;99.90;;;;;;4842053;29;20182;-96
2021/07/10 06:10:08;;;;;;;8.77;7.88;;;16.10;99.90;;;;;;4840504;29;20205;-96
2021/07/10 06:12:34;;;;;;;10.60;7.75;;;16.20;99.90;;;;;;4831037;29;20213;-96
2021/07/10 06:18:48;;;;;;;10.30;8.02;;;16.20;99.90;;;;;;4852491;29;20258;-96
2021/07/10 06:21:21;;;;;;;10.77;7.63;;;16.30;99.90;;;;;;4893175;23;20241;-96
2021/07/10 06:24:05;;;;;;;8.93;7.20;;;16.30;99.90;;;;;;4844541;29;20224;-95
2021/07/10 06:26:31;;;;;;;10.57;6.90;;;16.40;99.90;;;;;;4834712;29;20228;-96
2021/07/10 06:29:00;;;;;;;9.43;7.30;;;16.40;99.90;;;;;;4844118;29;20199;-96
2021/07/10 06:52:19;;;;;;;12.38;7.63;;;16.80;99.90;;;;;;5356422;23;20248;-96
2021/07/10 07:02:52;;;;;;;9.15;6.30;;;17.40;99.90;;;;;;4993287;23;20239;-96
2021/07/10 07:27:17;;;;;;;9.10;7.07;;;18.30;99.90;;;;;;1791998;23;21968;-95
2021/07/10 07:32:24;;;;;;;11.00;6.57;;;18.40;99.90;;;;;;5063675;23;20265;-96
2021/07/10 07:34:50;;;;;;;8.30;6.82;;;18.50;99.90;;;;;;4849768;29;20181;-96
2021/07/10 07:37:16;;;;;;;8.38;6.55;;;18.60;99.90;;;;;;4842475;29;20234;-96
2021/07/10 07:44:51;;;;;;;7.80;6.60;;;18.80;99.90;;;;;;4856416;29;20224;-95
2021/07/10 07:47:18;;;;;;;10.50;6.45;;;18.90;99.90;;;;;;4828809;29;20248;-95
2021/07/10 07:49:45;;;;;;;8.20;6.45;;;19.00;99.90;;;;;;4841458;29;20239;-96
2021/07/10 07:52:12;;;;;;;10.75;6.45;;;19.00;99.90;;;;;;4829863;29;20236;-95
2021/07/10 07:54:37;;;;;;;10.07;6.88;;;19.20;99.90;;;;;;4842071;29;20188;-95
2021/07/10 07:57:04;;;;;;;13.60;7.13;;;19.20;99.90;;;;;;4831086;29;20342;-96
2021/07/10 07:59:30;;;;;;;10.25;6.78;;;19.30;99.90;;;;;;4840594;29;20220;-96
2021/07/10 08:01:57;;;;;;;7.70;6.57;;;19.40;99.90;;;;;;4830228;29;20337;-95
2021/07/10 08:04:23;;;;;;;9.38;6.72;;;19.50;99.90;;;;;;4840837;29;20192;-96
2021/07/10 08:06:49;;;;;;;10.10;6.38;;;19.50;99.90;;;;;;4868880;23;20237;-96
2021/07/10 08:13:00;;;;;;;;;;;;;;;;;;;;;
2021/07/10 08:15:31;;;;;;;15.15;7.20;;;19.70;99.90;;;;;;4957920;23;20228;-96
2021/07/10 08:20:42;;;;;;;8.23;6.97;;;19.70;99.90;;;;;;5033006;23;20240;-96
2021/07/10 08:23:08;;;;;;;7.95;6.30;;;19.70;99.90;;;;;;4853340;23;20234;-95
2021/07/10 08:25:37;;;;;;;10.73;6.68;;;19.80;99.90;;;;;;4870248;29;20220;-95
2021/07/10 08:28:03;;;;;;;9.77;6.68;;;19.90;99.90;;;;;;4871886;29;20221;-96
2021/07/10 08:30:37;;;;;;;9.15;7.05;;;20.00;99.90;;;;;;4866921;29;20204;-96
2021/07/10 08:33:03;;;;;;;10.98;6.82;;;20.00;99.90;;;;;;4875339;29;20254;-96
2021/07/10 08:35:32;;;;;;;7.88;7.07;;;20.20;99.90;;;;;;4870334;29;20223;-96
2021/07/10 08:38:11;;;;;;;;;;;;;;;;;;;;;
2021/07/10 08:40:51;;;;;;;7.55;6.38;;;20.30;99.90;;;;;;4873413;29;20291;-96
2021/07/10 08:43:17;;;;;;;8.07;6.18;;;20.40;99.90;;;;;;4864610;29;20232;-94
2021/07/10 08:45:47;;;;;;;11.02;6.45;;;20.40;99.90;;;;;;4868047;29;20454;-95
2021/07/10 08:50:51;;;;;;;9.93;7.72;;;20.40;99.90;;;;;;4889099;23;20244;-95
2021/07/10 08:53:17;;;;;;;7.82;7.03;;;20.50;99.90;;;;;;4827369;29;20231;-95
2021/07/10 08:55:50;;;;;;;8.07;6.60;;;20.50;99.90;;;;;;4828803;29;20204;-96
2021/07/10 09:00:47;;;;;;;8.68;7.60;;;20.50;99.90;;;;;;4886801;24;20268;-96
2021/07/10 09:03:18;;;;;;;7.20;6.40;;;20.40;99.90;;;;;;4861954;29;20251;-96
2021/07/10 09:05:59;;;;;;;8.82;7.25;;;20.40;99.90;;;;;;4874024;29;20196;-96
2021/07/10 09:11:15;;;;;;;10.60;8.50;;;20.40;99.90;;;;;;4873062;23;20248;-96
2021/07/10 09:13:51;;;;;;;10.85;7.78;;;20.60;99.90;;;;;;4967003;24;20241;-94
2021/07/10 09:16:23;;;;;;;11.35;6.95;;;20.80;99.90;;;;;;4852789;29;20551;-96
2021/07/10 09:19:09;;;;;;;9.88;7.40;;;20.80;99.90;;;;;;4831638;29;20255;-96
2021/07/10 09:21:52;;;;;;;11.13;8.63;;;20.90;99.90;;;;;;4837736;29;20189;-95
2021/07/10 09:24:48;;;;;;;10.43;8.45;;;21.10;99.90;;;;;;4858486;29;20213;-96
2021/07/10 09:27:17;;;;;;;12.20;7.47;;;21.10;99.90;;;;;;4837370;29;20205;-96
2021/07/10 09:29:46;;;;;;;12.68;8.13;;;21.10;99.90;;;;;;4845932;29;20228;-96
2021/07/10 09:32:19;;;;;;;11.35;7.65;;;21.20;99.90;;;;;;4851277;29;20204;-96
2021/07/10 09:34:57;;;;;;;10.20;8.07;;;21.30;99.90;;;;;;4830627;29;20236;-96
2021/07/10 09:37:25;;;;;;;11.02;7.80;;;21.40;99.90;;;;;;4844685;29;20197;-95
2021/07/10 09:40:07;;;;;;;10.40;8.45;;;21.40;99.90;;;;;;4841274;29;20239;-96
2021/07/10 09:42:37;;;;;;;9.93;7.65;;;21.60;99.90;;;;;;4846594;29;20195;-95
2021/07/10 09:45:08;;;;;;;9.82;7.85;;;21.50;99.90;;;;;;4839136;29;20751;-96
2021/07/10 09:47:36;;;;;;;9.55;7.57;;;21.30;99.90;;;;;;4845032;29;20197;-96
2021/07/10 09:50:07;;;;;;;10.45;8.18;;;21.30;99.90;;;;;;4840335;29;20236;-96
2021/07/10 09:52:38;;;;;;;9.73;7.35;;;21.10;99.90;;;;;;4844592;29;20545;-96
2021/07/10 09:55:15;;;;;;;10.90;8.32;;;20.90;99.90;;;;;;4839408;29;20329;-95
2021/07/10 09:57:43;;;;;;;10.80;7.80;;;21.00;99.90;;;;;;4844779;29;20193;-95
2021/07/10 10:00:20;;;;;;;10.35;8.10;;;21.00;99.90;;;;;;4837979;29;20275;-95
2021/07/10 10:03:08;;;;;;;9.77;7.95;;;21.10;99.90;;;;;;4840711;29;20195;-95
2021/07/10 10:05:40;;;;;;;10.88;8.57;;;21.20;99.90;;;;;;4836942;29;20228;-95
2021/07/10 10:08:09;;;;;;;9.35;6.70;;;21.10;99.90;;;;;;4841862;29;20191;-94
2021/07/10 10:10:44;;;;;;;8.85;6.50;;;21.20;99.90;;;;;;4837395;29;20228;-95
2021/07/10 10:13:12;;;;;;;9.82;7.53;;;21.40;99.90;;;;;;4841655;29;20200;-95
2021/07/10 10:15:45;;;;;;;10.63;6.85;;;21.50;99.90;;;;;;4845442;29;20236;-96
2021/07/10 10:18:16;;;;;;;10.20;6.72;;;21.50;99.90;;;;;;4843637;29;20221;-96
2021/07/10 10:20:44;;;;;;;9.98;7.35;;;21.50;99.90;;;;;;4840073;29;20334;-94
2021/07/10 10:23:13;;;;;;;8.73;6.60;;;21.60;99.90;;;;;;4842542;29;20220;-93
2021/07/10 10:25:40;;;;;;;6.63;5.85;;;21.80;99.90;;;;;;4835424;29;20251;-95
2021/07/10 10:28:09;;;;;;;8.90;6.18;;;22.00;99.90;;;;;;4841955;29;20193;-94
2021/07/10 10:30:35;;;;;;;12.60;6.57;;;22.20;99.90;;;;;;4835522;29;20236;-94
2021/07/10 10:33:03;;;;;;;7.20;6.30;;;22.10;99.90;;;;;;4841366;29;20250;-95
2021/07/10 10:35:29;;;;;;;7.30;6.18;;;21.90;99.90;;;;;;4835110;29;20768;-93
2021/07/10 10:37:56;;;;;;;13.35;6.70;;;21.90;99.90;;;;;;4841073;29;20332;-94
2021/07/10 10:40:24;;;;;;;8.00;6.45;;;21.80;99.90;;;;;;4834503;29;20263;-94
2021/07/10 10:42:58;;;;;;;11.75;6.72;;;21.70;99.90;;;;;;4840345;29;20209;-93
2021/07/10 10:45:32;;;;;;;6.40;5.78;;;21.70;99.90;;;;;;4834763;29;20815;-93
2021/07/10 10:47:58;;;;;;;6.97;5.70;;;21.60;99.90;;;;;;4840590;29;20208;-93
2021/07/10 10:50:34;;;;;;;8.52;6.13;;;21.60;99.90;;;;;;4834307;29;20240;-94
2021/07/10 10:53:02;;;;;;;7.78;5.25;;;21.60;99.90;;;;;;4839511;29;20196;-94
2021/07/10 10:55:33;;;;;;;6.53;5.40;;;21.70;99.90;;;;;;4835232;29;20330;-95
2021/07/10 10:58:14;;;;;;;7.90;6.53;;;21.70;99.90;;;;;;4838636;29;20209;-94
2021/07/10 11:00:42;;;;;;;13.30;5.93;;;21.60;99.90;;;;;;4834807;29;20346;-93
2021/07/10 11:03:20;;;;;;;9.43;6.20;;;21.70;99.90;;;;;;4840641;29;20204;-94
2021/07/10 11:05:54;;;;;;;6.95;6.03;;;21.70;99.90;;;;;;4834945;29;20231;-93
2021/07/10 11:08:23;;;;;;;8.35;5.90;;;21.90;99.90;;;;;;4837447;29;20193;-93
2021/07/10 11:10:57;;;;;;;9.07;6.35;;;22.20;99.90;;;;;;4839039;29;20247;-93
2021/07/10 11:13:29;;;;;;;9.55;5.88;;;22.30;99.90;;;;;;4840087;29;20226;-93
2021/07/10 11:16:08;;;;;;;7.95;5.10;;;22.40;99.90;;;;;;4828624;29;20805;-93
2021/07/10 11:18:50;;;;;;;5.80;4.53;;;22.50;99.90;;;;;;4821610;29;20236;-94
2021/07/10 11:27:03;;;;;;;5.70;4.32;;;22.90;99.90;;;;;;4822917;29;20295;-92
2021/07/10 11:29:34;;;;;;;5.30;4.15;;;23.00;99.90;;;;;;4817246;29;20604;-93
2021/07/10 11:32:12;;;;;;;5.88;4.10;;;23.00;99.90;;;;;;4812848;29;20232;-94
2021/07/10 11:34:49;;;;;;;7.25;4.63;;;23.00;99.90;;;;;;4835121;29;20201;-93
2021/07/10 11:37:30;;;;;;;5.03;4.53;;;23.10;99.90;;;;;;4812654;29;20276;-95
2021/07/10 11:40:01;;;;;;;6.10;4.15;;;23.20;99.90;;;;;;4822398;29;20571;-94
2021/07/10 11:42:28;;;;;;;7.95;4.43;;;23.00;99.90;;;;;;4813114;29;20271;-92
2021/07/10 11:45:05;;;;;;;4.72;3.92;;;22.90;99.90;;;;;;4837457;29;20619;-93
2021/07/10 11:47:33;;;;;;;7.03;4.50;;;22.90;99.90;;;;;;4804399;29;20566;-94
2021/07/10 11:50:01;;;;;;;5.13;4.32;;;22.60;99.90;;;;;;4822728;29;20201;-94
2021/07/10 11:52:27;;;;;;;5.40;3.88;;;22.50;99.90;;;;;;4812582;29;20297;-94
2021/07/10 11:55:05;;;;;;;4.30;3.83;;;22.40;99.90;;;;;;4822037;29;20292;-94
2021/07/10 11:57:37;;;;;;;7.65;4.22;;;22.50;99.90;;;;;;4811323;29;20281;-93
2021/07/10 12:00:07;;;;;;;9.40;3.78;;;22.60;99.90;;;;;;4821924;29;20801;-94
2021/07/10 12:02:33;;;;;;;5.65;3.80;;;22.90;99.90;;;;;;4810361;29;20241;-94
2021/07/10 12:05:20;;;;;;;5.90;3.58;;;23.10;99.90;;;;;;4821881;29;20509;-93
2021/07/10 12:07:48;;;;;;;6.13;4.25;;;23.30;99.90;;;;;;4797388;29;20229;-95
2021/07/10 12:10:20;;;;;;;4.72;4.30;;;23.30;99.90;;;;;;4820008;29;20196;-95
2021/07/10 12:12:57;;;;;;;5.63;4.20;;;23.20;99.90;;;;;;4811006;29;20693;-96
2021/07/10 12:15:34;;;;;;;4.50;3.70;;;23.00;99.90;;;;;;4827238;29;20236;-95
2021/07/10 12:18:03;;;;;;;5.13;3.50;;;23.10;99.90;;;;;;4839173;29;20256;-94
2021/07/10 12:20:38;;;;;;;4.57;3.40;;;23.10;99.90;;;;;;4832554;29;20244;-95
2021/07/10 12:23:15;;;;;;;5.75;3.60;;;23.10;99.90;;;;;;4841142;29;20256;-95
2021/07/10 12:25:49;;;;;;;4.90;3.63;;;23.00;99.90;;;;;;4828009;29;20185;-93
2021/07/10 12:28:27;;;;;;;6.03;3.67;;;22.80;99.90;;;;;;4837150;29;20208;-94
2021/07/10 12:30:54;;;;;;;6.80;3.63;;;22.60;99.90;;;;;;4831959;29;20236;-92
2021/07/10 12:33:39;;;;;;;4.18;3.47;;;22.30;99.90;;;;;;4838484;29;20196;-94
2021/07/10 12:36:10;;;;;;;4.68;3.85;;;22.20;99.90;;;;;;4847055;29;20231;-94
2021/07/10 12:38:47;;;;;;;4.18;3.72;;;22.20;99.90;;;;;;4836208;29;20263;-93
2021/07/10 12:41:37;;;;;;;4.60;4.10;;;22.10;99.90;;;;;;4836530;29;20255;-93
2021/07/10 12:44:13;;;;;;;4.50;3.70;;;22.30;99.90;;;;;;4841599;29;20189;-94
2021/07/10 12:47:06;;;;;;;4.95;3.90;;;22.60;99.90;;;;;;4836294;29;20236;-93
2021/07/10 12:49:38;;;;;;;6.05;3.55;;;22.80;99.90;;;;;;4842168;29;20200;-94
2021/07/10 12:52:07;;;;;;;5.20;3.90;;;22.90;99.90;;;;;;4836952;29;20288;-94
2021/07/10 12:54:41;;;;;;;4.95;3.50;;;23.00;99.90;;;;;;4843231;29;20532;-92
2021/07/10 12:57:22;;;;;;;5.22;3.83;;;23.00;99.90;;;;;;4837115;29;20236;-93
2021/07/10 12:59:53;;;;;;;5.25;3.63;;;23.10;99.90;;;;;;4839540;29;20216;-91
2021/07/10 13:02:34;;;;;;;4.72;3.38;;;23.20;99.90;;;;;;4846899;29;20293;-91
2021/07/10 13:05:29;;;;;;;4.85;3.72;;;23.20;99.90;;;;;;4840530;29;20200;-93
2021/07/10 13:08:13;;;;;;;4.18;3.78;;;23.30;99.90;;;;;;4832844;29;20683;-92
2021/07/10 13:10:41;;;;;;;3.85;3.55;;;23.40;99.90;;;;;;4842959;29;20205;-95
2021/07/10 13:13:15;;;;;;;5.30;3.35;;;23.50;99.90;;;;;;4832199;29;20323;-92
2021/07/10 13:15:50;;;;;;;5.07;3.88;;;23.50;99.90;;;;;;4855885;29;20233;-92
2021/07/10 13:18:22;;;;;;;6.85;3.80;;;23.50;99.90;;;;;;4831839;29;20241;-94
2021/07/10 13:20:56;;;;;;;5.40;3.60;;;23.40;99.90;;;;;;4842562;29;20216;-94
2021/07/10 13:23:43;;;;;;;5.28;4.05;;;23.50;99.90;;;;;;4850648;29;20243;-93
2021/07/10 13:26:20;;;;;;;6.57;3.50;;;23.40;99.90;;;;;;4846586;29;20264;-95
2021/07/10 13:28:48;;;;;;;5.72;3.72;;;23.50;99.90;;;;;;4841291;29;20235;-94
2021/07/10 13:31:21;;;;;;;5.60;3.65;;;23.50;99.90;;;;;;4842564;29;20189;-94
2021/07/10 13:33:53;;;;;;;5.65;3.90;;;23.30;99.90;;;;;;4837338;29;20700;-93
2021/07/10 13:36:24;;;;;;;8.13;4.30;;;23.30;99.90;;;;;;4841939;29;20270;-93
2021/07/10 13:38:58;;;;;;;4.25;3.60;;;23.20;99.90;;;;;;4834999;29;20244;-94
2021/07/10 13:41:27;;;;;;;4.40;3.47;;;23.10;99.90;;;;;;4838627;29;20196;-93
2021/07/10 13:44:08;;;;;;;5.63;3.80;;;23.10;99.90;;;;;;4832789;29;20236;-94
2021/07/10 13:46:53;;;;;;;5.70;3.80;;;23.00;99.90;;;;;;4836915;29;20197;-94
2021/07/10 13:49:21;;;;;;;4.53;3.75;;;23.00;99.90;;;;;;4843059;29;20247;-95
2021/07/10 13:51:56;;;;;;;9.70;3.78;;;23.10;99.90;;;;;;4843503;29;20694;-95
2021/07/10 13:54:45;;;;;;;5.28;4.00;;;23.00;99.90;;;;;;4834323;29;20283;-94
2021/07/10 13:57:23;;;;;;;4.28;3.13;;;22.90;99.90;;;;;;4842067;29;20201;-95
2021/07/10 14:00:07;;;;;;;3.60;3.30;;;22.90;99.90;;;;;;4846509;29;20240;-95
2021/07/10 14:02:41;;;;;;;5.03;3.83;;;22.70;99.90;;;;;;4849902;29;20197;-96
2021/07/10 14:05:18;;;;;;;4.53;3.60;;;22.70;99.90;;;;;;4842533;29;20641;-95
2021/07/10 14:07:47;;;;;;;5.43;3.50;;;22.70;99.90;;;;;;4842446;29;20189;-96
2021/07/10 14:10:16;;;;;;;4.75;3.10;;;22.70;99.90;;;;;;4839355;29;20280;-95
2021/07/10 14:12:43;;;;;;;6.55;3.53;;;22.70;99.90;;;;;;4839471;29;20187;-96
2021/07/10 14:15:11;;;;;;;4.75;4.15;;;22.80;99.90;;;;;;4835306;29;20733;-94
2021/07/10 14:17:43;;;;;;;6.25;4.00;;;22.80;99.90;;;;;;4839712;29;20664;-95
2021/07/10 14:20:11;;;;;;;9.98;4.25;;;22.80;99.90;;;;;;4835509;29;20228;-95
2021/07/10 14:22:38;;;;;;;5.13;3.72;;;22.70;99.90;;;;;;4841078;29;20189;-95
2021/07/10 14:25:12;;;;;;;4.78;3.38;;;22.70;99.90;;;;;;4835435;29;20236;-95
2021/07/10 14:27:39;;;;;;;9.20;3.92;;;22.70;99.90;;;;;;4841052;29;20672;-95
2021/07/10 14:30:08;;;;;;;5.07;3.35;;;22.60;99.90;;;;;;4833150;29;20236;-94
2021/07/10 14:32:34;;;;;;;6.53;3.70;;;22.60;99.90;;;;;;4839948;29;20728;-95
2021/07/10 14:35:11;;;;;;;3.97;3.55;;;22.60;99.90;;;;;;4833821;29;20322;-94
2021/07/10 14:37:36;;;;;;;4.22;3.47;;;22.50;99.90;;;;;;4841061;29;20261;-94
2021/07/10 14:40:04;;;;;;;6.60;3.60;;;22.60;99.90;;;;;;4835527;29;20244;-93
2021/07/10 14:42:29;;;;;;;4.45;3.45;;;22.50;99.90;;;;;;4839148;29;20583;-94
2021/07/10 14:45:04;;;;;;;6.03;3.40;;;22.60;99.90;;;;;;4834978;29;20236;-92
2021/07/10 14:47:30;;;;;;;4.13;3.47;;;22.70;99.90;;;;;;4840786;29;20196;-93
2021/07/10 14:49:55;;;;;;;3.75;3.42;;;22.70;99.90;;;;;;4835378;29;20683;-93
2021/07/10 14:52:21;;;;;;;4.03;3.38;;;22.80;99.90;;;;;;4840061;29;20288;-92
2021/07/10 14:54:47;;;;;;;4.32;3.47;;;22.80;99.90;;;;;;4833419;29;20260;-93
2021/07/10 14:57:13;;;;;;;4.50;3.20;;;22.90;99.90;;;;;;4841426;29;20223;-91
2021/07/10 14:59:39;;;;;;;6.32;3.70;;;22.90;99.90;;;;;;4835544;29;20631;-94
2021/07/10 15:02:06;;;;;;;4.10;3.70;;;22.90;99.90;;;;;;4840026;29;20292;-93
2021/07/10 15:04:32;;;;;;;6.57;3.30;;;22.80;99.90;;;;;;4835084;29;20228;-93
2021/07/10 15:07:03;;;;;;;4.22;3.72;;;22.70;99.90;;;;;;4841040;29;20246;-93
2021/07/10 15:09:28;;;;;;;4.40;3.55;;;22.70;99.90;;;;;;4833127;29;20347;-93
2021/07/10 15:11:54;;;;;;;4.32;3.70;;;22.70;99.90;;;;;;4838722;29;20283;-94
2021/07/10 15:14:20;;;;;;;3.88;3.30;;;22.60;99.90;;;;;;4832771;29;20292;-94
2021/07/10 15:16:48;;;;;;;5.65;3.63;;;22.60;99.90;;;;;;4838672;29;20212;-94
2021/07/10 15:19:13;;;;;;;4.93;3.70;;;22.50;99.90;;;;;;4833434;29;20233;-93
2021/07/10 15:21:39;;;;;;;5.28;4.22;;;22.50;99.90;;;;;;4847165;29;20527;-93
2021/07/10 15:24:05;;;;;;;4.35;3.90;;;22.50;99.90;;;;;;4840016;29;20240;-94
2021/07/10 15:26:31;;;;;;;4.75;3.90;;;22.50;99.90;;;;;;4831741;29;20231;-93
2021/07/10 15:28:57;;;;;;;4.05;3.45;;;22.50;99.90;;;;;;4840367;29;20629;-95
2021/07/10 15:31:27;;;;;;;4.68;3.70;;;22.60;99.80;;;;;;4830519;29;20700;-93
2021/07/10 15:33:52;;;;;;;4.40;3.92;;;22.70;99.90;;;;;;4832176;29;20208;-93
2021/07/10 15:36:18;;;;;;;4.43;4.03;;;22.80;99.90;;;;;;4839055;29;20190;-93
2021/07/10 15:38:44;;;;;;;8.30;4.47;;;23.00;99.90;;;;;;4840016;29;20221;-93
2021/07/10 15:41:09;;;;;;;4.90;4.40;;;23.10;99.90;;;;;;4834193;29;20791;-94
2021/07/10 15:43:35;;;;;;;4.65;3.85;;;23.20;99.90;;;;;;4840407;29;20648;-93
2021/07/10 15:46:18;;;;;;;5.53;4.65;;;23.20;99.90;;;;;;4834020;29;20247;-93
2021/07/10 15:48:43;;;;;;;5.50;5.00;;;23.10;99.90;;;;;;4831306;29;20205;-93
2021/07/10 15:51:10;;;;;;;8.82;5.35;;;23.00;99.50;;;;;;4839528;29;20264;-93
2021/07/10 15:53:35;;;;;;;5.85;4.90;;;22.90;99.90;;;;;;4831918;29;20201;-93
2021/07/10 15:56:04;;;;;;;8.80;5.40;;;22.80;99.90;;;;;;4839986;29;20215;-93
2021/07/10 15:58:30;;;;;;;6.65;5.65;;;22.80;99.90;;;;;;4840216;29;20312;-93
2021/07/10 16:00:58;;;;;;;6.00;5.03;;;22.70;99.90;;;;;;4831704;29;20818;-93
2021/07/10 16:03:24;;;;;;;8.45;5.28;;;22.70;99.90;;;;;;4840073;29;20193;-94
2021/07/10 16:05:50;;;;;;;6.65;5.70;;;22.70;99.90;;;;;;4833398;29;20228;-94
2021/07/10 16:08:16;;;;;;;6.28;5.43;;;22.80;99.90;;;;;;4837563;29;20189;-95
2021/07/10 16:10:41;;;;;;;5.75;5.20;;;22.80;99.90;;;;;;4833716;29;20248;-94
2021/07/10 16:13:08;;;;;;;6.57;5.82;;;22.80;99.90;;;;;;4839411;29;20197;-92
2021/07/10 16:15:36;;;;;;;5.90;5.40;;;22.80;99.90;;;;;;4836333;29;20240;-92
2021/07/10 16:18:03;;;;;;;6.57;5.70;;;22.70;99.90;;;;;;4839557;29;20224;-93
2021/07/10 16:20:29;;;;;;;7.18;6.20;;;22.70;99.90;;;;;;4830918;29;20322;-94
2021/07/10 16:22:59;;;;;;;6.60;5.72;;;22.60;99.90;;;;;;4841114;29;20281;-93
2021/07/10 16:25:26;;;;;;;6.88;6.15;;;22.60;99.90;;;;;;4836387;29;20724;-92
2021/07/10 16:28:02;;;;;;;7.65;6.28;;;22.60;99.90;;;;;;4841773;29;20203;-94
2021/07/10 16:30:29;;;;;;;9.57;6.47;;;22.60;99.90;;;;;;4837146;29;20239;-93